sensor_id;sensor_type;location;lat;lon;timestamp;P1;durP1;ratioP1;P2;durP2;ratioP2
13743;SDS011;6943;52.368;9.966;2023-01-31T00:00:52;14.27;;;3.00;;
13743;SDS011;6943;52.368;9.966;2023-01-31T00:03:17;8.37;;;3.33;;
13743;SDS011;6943;52.368;9.966;2023-01-31T00:05:46;17.97;;;3.57;;
13743;SDS011;6943;52.368;9.966;2023-01-31T00:08:18;17.53;;;3.37;;
13743;SDS011;6943;52.368;9.966;2023-01-31T00:10:43;12.83;;;3.37;;
13743;SDS011;6943;52.368;9.966;2023-01-31T00:13:09;16.93;;;4.10;;
13743;SDS011;6943;52.368;9.966;2023-01-31T00:15:34;17.77;;;3.23;;
13743;SDS011;6943;52.368;9.966;2023-01-31T00:17:59;12.50;;;3.50;;
13743;SDS011;6943;52.368;9.966;2023-01-31T00:20:25;18.60;;;3.40;;
13743;SDS011;6943;52.368;9.966;2023-01-31T00:22:50;21.80;;;3.73;;
13743;SDS011;6943;52.368;9.966;2023-01-31T00:25:16;13.30;;;3.73;;
13743;SDS011;6943;52.368;9.966;2023-01-31T00:27:41;17.23;;;4.00;;
13743;SDS011;6943;52.368;9.966;2023-01-31T00:30:07;15.90;;;3.60;;
13743;SDS011;6943;52.368;9.966;2023-01-31T00:32:34;11.43;;;2.93;;
13743;SDS011;6943;52.368;9.966;2023-01-31T00:34:59;16.23;;;3.17;;
13743;SDS011;6943;52.368;9.966;2023-01-31T00:37:25;19.57;;;4.40;;
13743;SDS011;6943;52.368;9.966;2023-01-31T00:39:50;11.23;;;3.30;;
13743;SDS011;6943;52.368;9.966;2023-01-31T00:42:16;16.93;;;3.47;;
13743;SDS011;6943;52.368;9.966;2023-01-31T00:44:41;18.90;;;4.10;;
13743;SDS011;6943;52.368;9.966;2023-01-31T00:47:07;14.70;;;3.43;;
13743;SDS011;6943;52.368;9.966;2023-01-31T00:49:32;13.83;;;2.83;;
13743;SDS011;6943;52.368;9.966;2023-01-31T00:51:58;9.60;;;3.00;;
13743;SDS011;6943;52.368;9.966;2023-01-31T00:54:23;18.50;;;3.17;;
13743;SDS011;6943;52.368;9.966;2023-01-31T00:56:49;17.53;;;2.87;;
13743;SDS011;6943;52.368;9.966;2023-01-31T00:59:14;16.53;;;3.23;;
13743;SDS011;6943;52.368;9.966;2023-01-31T01:01:40;11.87;;;2.33;;
13743;SDS011;6943;52.368;9.966;2023-01-31T01:04:05;10.63;;;2.87;;
13743;SDS011;6943;52.368;9.966;2023-01-31T01:06:31;11.67;;;2.43;;
13743;SDS011;6943;52.368;9.966;2023-01-31T01:08:57;5.07;;;2.07;;
13743;SDS011;6943;52.368;9.966;2023-01-31T01:11:25;10.83;;;2.20;;
13743;SDS011;6943;52.368;9.966;2023-01-31T01:13:52;7.73;;;2.40;;
13743;SDS011;6943;52.368;9.966;2023-01-31T01:16:20;8.47;;;2.40;;
13743;SDS011;6943;52.368;9.966;2023-01-31T01:18:47;11.67;;;2.60;;
13743;SDS011;6943;52.368;9.966;2023-01-31T01:21:15;11.97;;;2.17;;
13743;SDS011;6943;52.368;9.966;2023-01-31T01:24:03;9.40;;;3.17;;
13743;SDS011;6943;52.368;9.966;2023-01-31T01:26:30;7.63;;;1.87;;
13743;SDS011;6943;52.368;9.966;2023-01-31T01:28:58;16.17;;;2.87;;
13743;SDS011;6943;52.368;9.966;2023-01-31T01:31:24;8.87;;;2.23;;
13743;SDS011;6943;52.368;9.966;2023-01-31T01:33:54;14.80;;;3.13;;
13743;SDS011;6943;52.368;9.966;2023-01-31T01:36:22;11.40;;;2.77;;
13743;SDS011;6943;52.368;9.966;2023-01-31T01:38:48;14.70;;;3.20;;
13743;SDS011;6943;52.368;9.966;2023-01-31T01:41:14;13.97;;;3.70;;
13743;SDS011;6943;52.368;9.966;2023-01-31T01:43:47;11.17;;;2.33;;
13743;SDS011;6943;52.368;9.966;2023-01-31T01:46:18;17.03;;;3.63;;
13743;SDS011;6943;52.368;9.966;2023-01-31T01:48:45;10.03;;;2.90;;
13743;SDS011;6943;52.368;9.966;2023-01-31T01:51:13;13.37;;;3.20;;
13743;SDS011;6943;52.368;9.966;2023-01-31T01:53:43;15.67;;;3.00;;
13743;SDS011;6943;52.368;9.966;2023-01-31T01:56:10;14.43;;;3.27;;
13743;SDS011;6943;52.368;9.966;2023-01-31T01:58:53;13.60;;;3.40;;
13743;SDS011;6943;52.368;9.966;2023-01-31T02:01:22;14.67;;;2.70;;
13743;SDS011;6943;52.368;9.966;2023-01-31T02:03:50;19.07;;;3.57;;
13743;SDS011;6943;52.368;9.966;2023-01-31T02:06:17;10.97;;;2.53;;
13743;SDS011;6943;52.368;9.966;2023-01-31T02:08:43;9.77;;;2.77;;
13743;SDS011;6943;52.368;9.966;2023-01-31T02:13:42;12.47;;;3.53;;
13743;SDS011;6943;52.368;9.966;2023-01-31T02:16:11;10.37;;;3.07;;
13743;SDS011;6943;52.368;9.966;2023-01-31T02:18:36;10.53;;;2.97;;
13743;SDS011;6943;52.368;9.966;2023-01-31T02:21:12;16.83;;;2.97;;
13743;SDS011;6943;52.368;9.966;2023-01-31T02:24:30;13.70;;;3.00;;
13743;SDS011;6943;52.368;9.966;2023-01-31T02:27:33;14.83;;;3.47;;
13743;SDS011;6943;52.368;9.966;2023-01-31T02:35:52;11.70;;;3.00;;
13743;SDS011;6943;52.368;9.966;2023-01-31T02:38:38;9.63;;;2.37;;
13743;SDS011;6943;52.368;9.966;2023-01-31T02:41:20;10.13;;;2.77;;
13743;SDS011;6943;52.368;9.966;2023-01-31T02:43:56;11.23;;;2.70;;
13743;SDS011;6943;52.368;9.966;2023-01-31T02:49:23;12.07;;;3.10;;
13743;SDS011;6943;52.368;9.966;2023-01-31T02:52:02;10.67;;;2.73;;
13743;SDS011;6943;52.368;9.966;2023-01-31T02:54:40;13.93;;;3.10;;
13743;SDS011;6943;52.368;9.966;2023-01-31T02:57:46;12.37;;;2.53;;
13743;SDS011;6943;52.368;9.966;2023-01-31T03:00:15;12.03;;;2.53;;
13743;SDS011;6943;52.368;9.966;2023-01-31T03:02:42;10.90;;;2.73;;
13743;SDS011;6943;52.368;9.966;2023-01-31T03:05:11;11.47;;;2.87;;
13743;SDS011;6943;52.368;9.966;2023-01-31T03:07:39;12.83;;;3.10;;
13743;SDS011;6943;52.368;9.966;2023-01-31T03:13:02;18.43;;;3.17;;
13743;SDS011;6943;52.368;9.966;2023-01-31T03:19:00;15.80;;;3.13;;
13743;SDS011;6943;52.368;9.966;2023-01-31T03:21:40;11.10;;;2.50;;
13743;SDS011;6943;52.368;9.966;2023-01-31T03:24:11;13.80;;;3.47;;
13743;SDS011;6943;52.368;9.966;2023-01-31T03:26:38;13.87;;;2.90;;
13743;SDS011;6943;52.368;9.966;2023-01-31T03:29:04;15.17;;;4.17;;
13743;SDS011;6943;52.368;9.966;2023-01-31T03:31:34;18.43;;;4.23;;
13743;SDS011;6943;52.368;9.966;2023-01-31T03:34:05;12.97;;;2.83;;
13743;SDS011;6943;52.368;9.966;2023-01-31T03:41:56;14.47;;;3.40;;
13743;SDS011;6943;52.368;9.966;2023-01-31T03:44:38;12.83;;;3.00;;
13743;SDS011;6943;52.368;9.966;2023-01-31T03:47:08;15.77;;;2.97;;
13743;SDS011;6943;52.368;9.966;2023-01-31T03:49:56;16.40;;;2.83;;
13743;SDS011;6943;52.368;9.966;2023-01-31T03:52:30;14.33;;;3.33;;
13743;SDS011;6943;52.368;9.966;2023-01-31T03:55:02;13.80;;;2.67;;
13743;SDS011;6943;52.368;9.966;2023-01-31T03:57:41;15.03;;;3.63;;
13743;SDS011;6943;52.368;9.966;2023-01-31T04:00:11;10.20;;;2.93;;
13743;SDS011;6943;52.368;9.966;2023-01-31T04:02:39;14.30;;;3.13;;
13743;SDS011;6943;52.368;9.966;2023-01-31T04:07:36;14.87;;;2.60;;
13743;SDS011;6943;52.368;9.966;2023-01-31T04:10:03;11.73;;;2.97;;
13743;SDS011;6943;52.368;9.966;2023-01-31T04:12:36;12.77;;;3.60;;
13743;SDS011;6943;52.368;9.966;2023-01-31T04:15:02;18.33;;;2.83;;
13743;SDS011;6943;52.368;9.966;2023-01-31T04:17:29;16.20;;;3.03;;
13743;SDS011;6943;52.368;9.966;2023-01-31T04:19:54;10.33;;;2.77;;
13743;SDS011;6943;52.368;9.966;2023-01-31T04:22:20;17.27;;;3.33;;
13743;SDS011;6943;52.368;9.966;2023-01-31T04:24:46;11.53;;;3.27;;
13743;SDS011;6943;52.368;9.966;2023-01-31T04:27:11;16.73;;;3.17;;
13743;SDS011;6943;52.368;9.966;2023-01-31T04:29:37;13.70;;;2.60;;
13743;SDS011;6943;52.368;9.966;2023-01-31T04:32:02;14.90;;;3.20;;
13743;SDS011;6943;52.368;9.966;2023-01-31T04:34:28;10.17;;;2.70;;
13743;SDS011;6943;52.368;9.966;2023-01-31T04:36:53;20.43;;;2.90;;
13743;SDS011;6943;52.368;9.966;2023-01-31T04:39:19;12.43;;;3.07;;
13743;SDS011;6943;52.368;9.966;2023-01-31T04:41:44;13.07;;;2.87;;
13743;SDS011;6943;52.368;9.966;2023-01-31T04:44:10;15.23;;;3.13;;
13743;SDS011;6943;52.368;9.966;2023-01-31T04:46:36;15.23;;;3.07;;
13743;SDS011;6943;52.368;9.966;2023-01-31T04:49:02;12.63;;;2.47;;
13743;SDS011;6943;52.368;9.966;2023-01-31T04:51:28;14.20;;;2.83;;
13743;SDS011;6943;52.368;9.966;2023-01-31T04:53:53;9.83;;;2.77;;
13743;SDS011;6943;52.368;9.966;2023-01-31T04:56:19;11.33;;;2.83;;
13743;SDS011;6943;52.368;9.966;2023-01-31T04:58:44;12.37;;;3.07;;
13743;SDS011;6943;52.368;9.966;2023-01-31T05:01:09;9.90;;;2.77;;
13743;SDS011;6943;52.368;9.966;2023-01-31T05:03:35;13.77;;;2.33;;
13743;SDS011;6943;52.368;9.966;2023-01-31T05:06:00;11.73;;;2.77;;
13743;SDS011;6943;52.368;9.966;2023-01-31T05:08:26;10.13;;;2.47;;
13743;SDS011;6943;52.368;9.966;2023-01-31T05:10:58;14.13;;;2.70;;
13743;SDS011;6943;52.368;9.966;2023-01-31T05:13:24;15.13;;;2.87;;
13743;SDS011;6943;52.368;9.966;2023-01-31T05:15:50;19.87;;;3.83;;
13743;SDS011;6943;52.368;9.966;2023-01-31T05:18:16;14.90;;;2.60;;
13743;SDS011;6943;52.368;9.966;2023-01-31T05:20:42;12.77;;;2.90;;
13743;SDS011;6943;52.368;9.966;2023-01-31T05:23:07;17.37;;;2.33;;
13743;SDS011;6943;52.368;9.966;2023-01-31T05:25:34;13.50;;;2.77;;
13743;SDS011;6943;52.368;9.966;2023-01-31T05:28:00;10.00;;;2.87;;
13743;SDS011;6943;52.368;9.966;2023-01-31T05:30:26;9.77;;;2.37;;
13743;SDS011;6943;52.368;9.966;2023-01-31T05:32:51;11.70;;;2.57;;
13743;SDS011;6943;52.368;9.966;2023-01-31T05:35:17;13.50;;;3.00;;
13743;SDS011;6943;52.368;9.966;2023-01-31T05:37:43;12.30;;;2.03;;
13743;SDS011;6943;52.368;9.966;2023-01-31T05:40:13;12.27;;;2.60;;
13743;SDS011;6943;52.368;9.966;2023-01-31T05:42:40;15.10;;;3.43;;
13743;SDS011;6943;52.368;9.966;2023-01-31T05:45:07;13.20;;;2.57;;
13743;SDS011;6943;52.368;9.966;2023-01-31T05:47:34;10.50;;;2.83;;
13743;SDS011;6943;52.368;9.966;2023-01-31T05:50:00;11.10;;;2.77;;
13743;SDS011;6943;52.368;9.966;2023-01-31T05:52:26;12.67;;;2.47;;
13743;SDS011;6943;52.368;9.966;2023-01-31T05:54:51;14.77;;;2.93;;
13743;SDS011;6943;52.368;9.966;2023-01-31T05:57:17;8.03;;;2.60;;
13743;SDS011;6943;52.368;9.966;2023-01-31T05:59:43;11.23;;;2.47;;
13743;SDS011;6943;52.368;9.966;2023-01-31T06:02:09;9.77;;;2.63;;
13743;SDS011;6943;52.368;9.966;2023-01-31T06:04:35;12.83;;;2.77;;
13743;SDS011;6943;52.368;9.966;2023-01-31T06:07:01;11.60;;;2.70;;
13743;SDS011;6943;52.368;9.966;2023-01-31T06:09:27;12.30;;;2.53;;
13743;SDS011;6943;52.368;9.966;2023-01-31T06:11:52;15.43;;;3.20;;
13743;SDS011;6943;52.368;9.966;2023-01-31T06:14:18;10.27;;;3.23;;
13743;SDS011;6943;52.368;9.966;2023-01-31T06:16:43;12.93;;;3.17;;
13743;SDS011;6943;52.368;9.966;2023-01-31T06:19:09;12.97;;;2.63;;
13743;SDS011;6943;52.368;9.966;2023-01-31T06:21:34;9.80;;;3.23;;
13743;SDS011;6943;52.368;9.966;2023-01-31T06:24:00;11.10;;;2.87;;
13743;SDS011;6943;52.368;9.966;2023-01-31T06:26:26;9.80;;;2.40;;
13743;SDS011;6943;52.368;9.966;2023-01-31T06:28:52;12.47;;;2.90;;
13743;SDS011;6943;52.368;9.966;2023-01-31T06:31:17;8.77;;;2.40;;
13743;SDS011;6943;52.368;9.966;2023-01-31T06:33:43;9.53;;;2.83;;
13743;SDS011;6943;52.368;9.966;2023-01-31T06:36:08;12.73;;;2.93;;
13743;SDS011;6943;52.368;9.966;2023-01-31T06:38:34;11.13;;;2.40;;
13743;SDS011;6943;52.368;9.966;2023-01-31T06:40:59;10.00;;;2.60;;
13743;SDS011;6943;52.368;9.966;2023-01-31T06:43:25;8.70;;;2.87;;
13743;SDS011;6943;52.368;9.966;2023-01-31T06:45:51;13.03;;;3.13;;
13743;SDS011;6943;52.368;9.966;2023-01-31T06:48:16;14.40;;;2.80;;
13743;SDS011;6943;52.368;9.966;2023-01-31T06:50:43;13.00;;;2.73;;
13743;SDS011;6943;52.368;9.966;2023-01-31T06:53:09;8.80;;;2.60;;
13743;SDS011;6943;52.368;9.966;2023-01-31T06:55:34;12.33;;;3.00;;
13743;SDS011;6943;52.368;9.966;2023-01-31T06:58:00;14.87;;;3.20;;
13743;SDS011;6943;52.368;9.966;2023-01-31T07:00:25;14.00;;;3.20;;
13743;SDS011;6943;52.368;9.966;2023-01-31T07:02:51;10.33;;;2.70;;
13743;SDS011;6943;52.368;9.966;2023-01-31T07:05:17;13.93;;;4.13;;
13743;SDS011;6943;52.368;9.966;2023-01-31T07:07:44;13.13;;;2.90;;
13743;SDS011;6943;52.368;9.966;2023-01-31T07:10:10;12.10;;;2.93;;
13743;SDS011;6943;52.368;9.966;2023-01-31T07:12:37;9.27;;;2.70;;
13743;SDS011;6943;52.368;9.966;2023-01-31T07:15:02;9.80;;;2.97;;
13743;SDS011;6943;52.368;9.966;2023-01-31T07:17:28;11.73;;;3.20;;
13743;SDS011;6943;52.368;9.966;2023-01-31T07:19:54;13.37;;;3.37;;
13743;SDS011;6943;52.368;9.966;2023-01-31T07:22:19;14.57;;;3.30;;
13743;SDS011;6943;52.368;9.966;2023-01-31T07:24:45;10.87;;;3.10;;
13743;SDS011;6943;52.368;9.966;2023-01-31T07:27:13;13.63;;;3.37;;
13743;SDS011;6943;52.368;9.966;2023-01-31T07:29:39;11.87;;;4.10;;
13743;SDS011;6943;52.368;9.966;2023-01-31T07:32:05;10.63;;;3.40;;
13743;SDS011;6943;52.368;9.966;2023-01-31T07:34:30;12.20;;;4.47;;
13743;SDS011;6943;52.368;9.966;2023-01-31T07:36:56;11.67;;;3.47;;
13743;SDS011;6943;52.368;9.966;2023-01-31T07:39:22;15.00;;;4.50;;
13743;SDS011;6943;52.368;9.966;2023-01-31T07:41:47;14.27;;;3.87;;
13743;SDS011;6943;52.368;9.966;2023-01-31T07:44:13;12.93;;;3.80;;
13743;SDS011;6943;52.368;9.966;2023-01-31T07:46:39;12.00;;;3.60;;
13743;SDS011;6943;52.368;9.966;2023-01-31T07:49:05;15.50;;;4.47;;
13743;SDS011;6943;52.368;9.966;2023-01-31T07:51:33;13.97;;;4.60;;
13743;SDS011;6943;52.368;9.966;2023-01-31T07:54:00;11.43;;;4.53;;
13743;SDS011;6943;52.368;9.966;2023-01-31T07:56:26;18.40;;;4.30;;
13743;SDS011;6943;52.368;9.966;2023-01-31T07:58:52;10.77;;;4.93;;
13743;SDS011;6943;52.368;9.966;2023-01-31T08:01:18;21.30;;;5.23;;
13743;SDS011;6943;52.368;9.966;2023-01-31T08:04:05;13.27;;;3.97;;
13743;SDS011;6943;52.368;9.966;2023-01-31T08:06:32;11.40;;;4.73;;
13743;SDS011;6943;52.368;9.966;2023-01-31T08:08:57;11.07;;;4.20;;
13743;SDS011;6943;52.368;9.966;2023-01-31T08:11:24;11.77;;;5.07;;
13743;SDS011;6943;52.368;9.966;2023-01-31T08:13:49;11.10;;;4.53;;
13743;SDS011;6943;52.368;9.966;2023-01-31T08:16:15;14.10;;;4.07;;
13743;SDS011;6943;52.368;9.966;2023-01-31T08:18:40;12.47;;;4.17;;
13743;SDS011;6943;52.368;9.966;2023-01-31T08:21:06;11.87;;;4.60;;
13743;SDS011;6943;52.368;9.966;2023-01-31T08:23:35;12.00;;;4.70;;
13743;SDS011;6943;52.368;9.966;2023-01-31T08:26:12;16.63;;;5.87;;
13743;SDS011;6943;52.368;9.966;2023-01-31T08:28:40;13.27;;;6.00;;
13743;SDS011;6943;52.368;9.966;2023-01-31T08:31:10;17.57;;;5.27;;
13743;SDS011;6943;52.368;9.966;2023-01-31T08:33:38;15.60;;;5.07;;
13743;SDS011;6943;52.368;9.966;2023-01-31T08:36:10;12.70;;;4.67;;
13743;SDS011;6943;52.368;9.966;2023-01-31T08:38:39;16.30;;;4.40;;
13743;SDS011;6943;52.368;9.966;2023-01-31T08:41:04;16.80;;;5.33;;
13743;SDS011;6943;52.368;9.966;2023-01-31T08:43:30;14.70;;;5.30;;
13743;SDS011;6943;52.368;9.966;2023-01-31T08:45:56;13.87;;;4.33;;
13743;SDS011;6943;52.368;9.966;2023-01-31T08:48:22;15.60;;;4.83;;
13743;SDS011;6943;52.368;9.966;2023-01-31T08:50:47;13.60;;;4.87;;
13743;SDS011;6943;52.368;9.966;2023-01-31T08:53:13;14.07;;;4.70;;
13743;SDS011;6943;52.368;9.966;2023-01-31T08:55:38;12.67;;;4.50;;
13743;SDS011;6943;52.368;9.966;2023-01-31T08:58:04;15.70;;;5.07;;
13743;SDS011;6943;52.368;9.966;2023-01-31T09:00:29;18.73;;;5.30;;
13743;SDS011;6943;52.368;9.966;2023-01-31T09:02:56;17.63;;;5.13;;
13743;SDS011;6943;52.368;9.966;2023-01-31T09:05:24;15.87;;;5.73;;
13743;SDS011;6943;52.368;9.966;2023-01-31T09:07:50;11.47;;;5.07;;
13743;SDS011;6943;52.368;9.966;2023-01-31T09:10:17;14.90;;;4.83;;
13743;SDS011;6943;52.368;9.966;2023-01-31T09:12:42;21.13;;;5.63;;
13743;SDS011;6943;52.368;9.966;2023-01-31T09:15:08;20.57;;;5.43;;
13743;SDS011;6943;52.368;9.966;2023-01-31T09:17:34;16.70;;;5.17;;
13743;SDS011;6943;52.368;9.966;2023-01-31T09:20:00;20.50;;;5.93;;
13743;SDS011;6943;52.368;9.966;2023-01-31T09:22:30;18.73;;;5.97;;
13743;SDS011;6943;52.368;9.966;2023-01-31T09:24:57;19.03;;;5.97;;
13743;SDS011;6943;52.368;9.966;2023-01-31T09:27:23;15.47;;;5.67;;
13743;SDS011;6943;52.368;9.966;2023-01-31T09:29:49;13.20;;;5.63;;
13743;SDS011;6943;52.368;9.966;2023-01-31T09:32:14;22.17;;;6.40;;
13743;SDS011;6943;52.368;9.966;2023-01-31T09:34:40;11.07;;;5.20;;
13743;SDS011;6943;52.368;9.966;2023-01-31T09:37:05;15.47;;;6.00;;
13743;SDS011;6943;52.368;9.966;2023-01-31T09:39:31;17.23;;;6.13;;
13743;SDS011;6943;52.368;9.966;2023-01-31T09:41:57;17.23;;;5.80;;
13743;SDS011;6943;52.368;9.966;2023-01-31T09:44:32;16.73;;;6.00;;
13743;SDS011;6943;52.368;9.966;2023-01-31T09:47:15;18.87;;;6.30;;
13743;SDS011;6943;52.368;9.966;2023-01-31T09:49:53;16.03;;;6.07;;
13743;SDS011;6943;52.368;9.966;2023-01-31T09:52:24;20.43;;;6.37;;
13743;SDS011;6943;52.368;9.966;2023-01-31T09:54:52;13.57;;;6.67;;
13743;SDS011;6943;52.368;9.966;2023-01-31T09:57:25;15.80;;;6.80;;
13743;SDS011;6943;52.368;9.966;2023-01-31T10:00:03;15.07;;;6.77;;
13743;SDS011;6943;52.368;9.966;2023-01-31T10:05:48;15.83;;;7.03;;
13743;SDS011;6943;52.368;9.966;2023-01-31T10:08:35;13.10;;;7.03;;
13743;SDS011;6943;52.368;9.966;2023-01-31T10:11:21;15.27;;;7.53;;
13743;SDS011;6943;52.368;9.966;2023-01-31T10:14:46;14.33;;;7.17;;
13743;SDS011;6943;52.368;9.966;2023-01-31T10:16:59;13.67;;;6.80;;
13743;SDS011;6943;52.368;9.966;2023-01-31T10:19:37;12.10;;;6.07;;
13743;SDS011;6943;52.368;9.966;2023-01-31T10:22:10;13.77;;;6.43;;
13743;SDS011;6943;52.368;9.966;2023-01-31T10:24:43;12.77;;;5.50;;
13743;SDS011;6943;52.368;9.966;2023-01-31T10:27:22;11.73;;;5.77;;
13743;SDS011;6943;52.368;9.966;2023-01-31T10:30:16;11.97;;;5.10;;
13743;SDS011;6943;52.368;9.966;2023-01-31T10:32:46;10.47;;;4.97;;
13743;SDS011;6943;52.368;9.966;2023-01-31T10:35:18;11.63;;;5.10;;
13743;SDS011;6943;52.368;9.966;2023-01-31T10:37:49;8.70;;;4.90;;
13743;SDS011;6943;52.368;9.966;2023-01-31T10:40:27;9.33;;;4.50;;
13743;SDS011;6943;52.368;9.966;2023-01-31T10:43:02;9.27;;;5.17;;
13743;SDS011;6943;52.368;9.966;2023-01-31T10:45:46;10.60;;;5.27;;
13743;SDS011;6943;52.368;9.966;2023-01-31T10:48:16;9.17;;;5.57;;
13743;SDS011;6943;52.368;9.966;2023-01-31T10:50:48;7.90;;;5.70;;
13743;SDS011;6943;52.368;9.966;2023-01-31T10:56:25;8.33;;;4.80;;
13743;SDS011;6943;52.368;9.966;2023-01-31T10:58:58;6.57;;;4.43;;
13743;SDS011;6943;52.368;9.966;2023-01-31T11:01:29;12.60;;;5.37;;
13743;SDS011;6943;52.368;9.966;2023-01-31T11:03:55;12.73;;;5.07;;
13743;SDS011;6943;52.368;9.966;2023-01-31T11:06:21;7.13;;;4.83;;
13743;SDS011;6943;52.368;9.966;2023-01-31T11:08:52;12.23;;;5.10;;
13743;SDS011;6943;52.368;9.966;2023-01-31T11:11:22;10.27;;;4.50;;
13743;SDS011;6943;52.368;9.966;2023-01-31T11:14:00;7.70;;;5.30;;
13743;SDS011;6943;52.368;9.966;2023-01-31T11:16:32;11.47;;;5.30;;
13743;SDS011;6943;52.368;9.966;2023-01-31T11:19:01;6.87;;;4.47;;
13743;SDS011;6943;52.368;9.966;2023-01-31T11:21:50;11.60;;;5.07;;
13743;SDS011;6943;52.368;9.966;2023-01-31T11:24:21;8.10;;;5.40;;
13743;SDS011;6943;52.368;9.966;2023-01-31T11:26:53;11.27;;;5.40;;
13743;SDS011;6943;52.368;9.966;2023-01-31T11:29:25;10.53;;;5.07;;
13743;SDS011;6943;52.368;9.966;2023-01-31T11:32:17;9.00;;;5.43;;
13743;SDS011;6943;52.368;9.966;2023-01-31T11:34:56;7.03;;;4.90;;
13743;SDS011;6943;52.368;9.966;2023-01-31T11:37:24;12.73;;;5.47;;
13743;SDS011;6943;52.368;9.966;2023-01-31T11:39:54;12.57;;;5.40;;
13743;SDS011;6943;52.368;9.966;2023-01-31T11:45:00;11.43;;;5.33;;
13743;SDS011;6943;52.368;9.966;2023-01-31T11:50:03;11.83;;;5.97;;
13743;SDS011;6943;52.368;9.966;2023-01-31T11:52:31;15.27;;;6.03;;
13743;SDS011;6943;52.368;9.966;2023-01-31T11:54:59;12.30;;;6.10;;
13743;SDS011;6943;52.368;9.966;2023-01-31T11:57:32;10.57;;;5.77;;
13743;SDS011;6943;52.368;9.966;2023-01-31T12:00:00;11.17;;;5.60;;
13743;SDS011;6943;52.368;9.966;2023-01-31T12:02:34;11.17;;;6.10;;
13743;SDS011;6943;52.368;9.966;2023-01-31T12:05:01;14.50;;;6.60;;
13743;SDS011;6943;52.368;9.966;2023-01-31T12:07:49;11.13;;;6.20;;
13743;SDS011;6943;52.368;9.966;2023-01-31T12:10:30;14.13;;;7.43;;
13743;SDS011;6943;52.368;9.966;2023-01-31T12:12:58;11.27;;;6.10;;
13743;SDS011;6943;52.368;9.966;2023-01-31T12:15:35;12.53;;;7.07;;
13743;SDS011;6943;52.368;9.966;2023-01-31T12:18:00;13.37;;;7.40;;
13743;SDS011;6943;52.368;9.966;2023-01-31T12:20:47;12.47;;;7.00;;
13743;SDS011;6943;52.368;9.966;2023-01-31T12:29:17;16.03;;;6.83;;
13743;SDS011;6943;52.368;9.966;2023-01-31T12:32:02;14.50;;;7.87;;
13743;SDS011;6943;52.368;9.966;2023-01-31T12:45:03;11.87;;;7.10;;
13743;SDS011;6943;52.368;9.966;2023-01-31T12:53:44;17.77;;;7.90;;
13743;SDS011;6943;52.368;9.966;2023-01-31T12:56:37;14.00;;;8.53;;
13743;SDS011;6943;52.368;9.966;2023-01-31T12:59:25;12.77;;;7.70;;
13743;SDS011;6943;52.368;9.966;2023-01-31T13:02:27;12.53;;;8.13;;
13743;SDS011;6943;52.368;9.966;2023-01-31T13:05:15;16.87;;;9.17;;
13743;SDS011;6943;52.368;9.966;2023-01-31T13:08:05;13.17;;;9.23;;
13743;SDS011;6943;52.368;9.966;2023-01-31T13:10:52;15.73;;;10.23;;
13743;SDS011;6943;52.368;9.966;2023-01-31T13:13:27;15.27;;;9.83;;
13743;SDS011;6943;52.368;9.966;2023-01-31T13:15:59;14.03;;;10.53;;
13743;SDS011;6943;52.368;9.966;2023-01-31T13:18:30;14.70;;;11.77;;
13743;SDS011;6943;52.368;9.966;2023-01-31T13:21:00;18.83;;;12.10;;
13743;SDS011;6943;52.368;9.966;2023-01-31T13:23:33;18.30;;;13.00;;
13743;SDS011;6943;52.368;9.966;2023-01-31T13:28:54;21.97;;;12.87;;
13743;SDS011;6943;52.368;9.966;2023-01-31T13:31:23;18.73;;;12.43;;
13743;SDS011;6943;52.368;9.966;2023-01-31T13:36:54;16.40;;;12.67;;
13743;SDS011;6943;52.368;9.966;2023-01-31T13:39:29;17.50;;;12.70;;
13743;SDS011;6943;52.368;9.966;2023-01-31T13:42:00;15.50;;;12.33;;
13743;SDS011;6943;52.368;9.966;2023-01-31T13:44:26;14.80;;;12.00;;
13743;SDS011;6943;52.368;9.966;2023-01-31T13:46:55;16.57;;;13.10;;
13743;SDS011;6943;52.368;9.966;2023-01-31T13:49:28;18.97;;;13.10;;
13743;SDS011;6943;52.368;9.966;2023-01-31T13:52:01;15.00;;;11.63;;
13743;SDS011;6943;52.368;9.966;2023-01-31T13:54:37;16.60;;;11.60;;
13743;SDS011;6943;52.368;9.966;2023-01-31T13:57:05;14.87;;;10.83;;
13743;SDS011;6943;52.368;9.966;2023-01-31T13:59:43;15.03;;;11.90;;
13743;SDS011;6943;52.368;9.966;2023-01-31T14:02:18;14.70;;;10.83;;
13743;SDS011;6943;52.368;9.966;2023-01-31T14:04:44;14.73;;;9.73;;
13743;SDS011;6943;52.368;9.966;2023-01-31T14:12:30;9.33;;;8.43;;
13743;SDS011;6943;52.368;9.966;2023-01-31T14:15:01;13.13;;;9.13;;
13743;SDS011;6943;52.368;9.966;2023-01-31T14:22:28;9.97;;;8.40;;
13743;SDS011;6943;52.368;9.966;2023-01-31T14:25:05;10.97;;;7.70;;
13743;SDS011;6943;52.368;9.966;2023-01-31T14:27:38;8.07;;;7.13;;
13743;SDS011;6943;52.368;9.966;2023-01-31T14:30:26;8.37;;;7.30;;
13743;SDS011;6943;52.368;9.966;2023-01-31T14:35:34;10.93;;;6.73;;
13743;SDS011;6943;52.368;9.966;2023-01-31T14:38:22;10.63;;;7.43;;
13743;SDS011;6943;52.368;9.966;2023-01-31T14:49:11;7.37;;;6.00;;
13743;SDS011;6943;52.368;9.966;2023-01-31T14:51:52;7.50;;;5.90;;
13743;SDS011;6943;52.368;9.966;2023-01-31T14:54:50;6.60;;;5.93;;
13743;SDS011;6943;52.368;9.966;2023-01-31T14:57:46;5.97;;;5.47;;
13743;SDS011;6943;52.368;9.966;2023-01-31T15:02:49;8.40;;;5.50;;
13743;SDS011;6943;52.368;9.966;2023-01-31T15:07:57;6.13;;;4.80;;
13743;SDS011;6943;52.368;9.966;2023-01-31T15:13:44;7.10;;;5.07;;
13743;SDS011;6943;52.368;9.966;2023-01-31T15:19:07;5.73;;;4.93;;
13743;SDS011;6943;52.368;9.966;2023-01-31T15:24:23;6.47;;;4.80;;
13743;SDS011;6943;52.368;9.966;2023-01-31T15:26:58;9.17;;;5.40;;
13743;SDS011;6943;52.368;9.966;2023-01-31T15:29:32;5.83;;;5.07;;
13743;SDS011;6943;52.368;9.966;2023-01-31T15:32:12;10.20;;;6.47;;
13743;SDS011;6943;52.368;9.966;2023-01-31T15:35:03;8.60;;;7.20;;
13743;SDS011;6943;52.368;9.966;2023-01-31T15:37:39;11.50;;;7.17;;
13743;SDS011;6943;52.368;9.966;2023-01-31T15:40:22;7.83;;;5.70;;
13743;SDS011;6943;52.368;9.966;2023-01-31T15:42:49;7.83;;;5.43;;
13743;SDS011;6943;52.368;9.966;2023-01-31T15:45:19;9.30;;;6.10;;
13743;SDS011;6943;52.368;9.966;2023-01-31T15:48:06;8.80;;;6.10;;
13743;SDS011;6943;52.368;9.966;2023-01-31T15:50:50;9.70;;;5.90;;
13743;SDS011;6943;52.368;9.966;2023-01-31T15:53:24;9.07;;;6.37;;
13743;SDS011;6943;52.368;9.966;2023-01-31T15:55:52;9.93;;;7.20;;
13743;SDS011;6943;52.368;9.966;2023-01-31T15:58:26;8.40;;;6.70;;
13743;SDS011;6943;52.368;9.966;2023-01-31T16:00:54;6.97;;;6.03;;
13743;SDS011;6943;52.368;9.966;2023-01-31T16:03:22;9.67;;;6.30;;
13743;SDS011;6943;52.368;9.966;2023-01-31T16:05:53;8.60;;;6.50;;
13743;SDS011;6943;52.368;9.966;2023-01-31T16:08:31;8.57;;;6.90;;
13743;SDS011;6943;52.368;9.966;2023-01-31T16:11:06;8.53;;;6.40;;
13743;SDS011;6943;52.368;9.966;2023-01-31T16:13:34;9.57;;;6.10;;
13743;SDS011;6943;52.368;9.966;2023-01-31T16:16:02;7.47;;;5.83;;
13743;SDS011;6943;52.368;9.966;2023-01-31T16:18:29;7.13;;;5.90;;
13743;SDS011;6943;52.368;9.966;2023-01-31T16:20:55;8.83;;;6.27;;
13743;SDS011;6943;52.368;9.966;2023-01-31T16:28:39;9.97;;;6.90;;
13743;SDS011;6943;52.368;9.966;2023-01-31T16:31:11;8.67;;;6.93;;
13743;SDS011;6943;52.368;9.966;2023-01-31T16:33:48;9.93;;;7.40;;
13743;SDS011;6943;52.368;9.966;2023-01-31T16:36:21;7.47;;;6.67;;
13743;SDS011;6943;52.368;9.966;2023-01-31T16:38:56;11.17;;;6.17;;
13743;SDS011;6943;52.368;9.966;2023-01-31T16:41:40;7.93;;;3.63;;
13743;SDS011;6943;52.368;9.966;2023-01-31T16:44:19;7.67;;;3.60;;
13743;SDS011;6943;52.368;9.966;2023-01-31T16:46:47;7.17;;;4.27;;
13743;SDS011;6943;52.368;9.966;2023-01-31T16:49:19;8.93;;;4.70;;
13743;SDS011;6943;52.368;9.966;2023-01-31T16:51:47;5.57;;;3.70;;
13743;SDS011;6943;52.368;9.966;2023-01-31T16:56:45;4.70;;;2.30;;
13743;SDS011;6943;52.368;9.966;2023-01-31T17:02:00;5.37;;;2.33;;